Time;durP1;ratioP1;P1;durP2;ratioP2;P2;SDS_P1;SDS_P2;PMS_P1;PMS_P2;Temp;Humidity;BMP_temperature;BMP_pressure;BME280_temperature;BME280_humidity;BME280_pressure;Samples;Min_cycle;Max_cycle;Signal;HPM_P1;HPM_P2
2021/08/10 00:00:09;;;;;;;;;;;14.30;99.90;;;;;;5076923;28;19908;-70
2021/08/10 00:02:35;;;;;;;;;;;14.40;99.90;;;;;;5076792;28;19913;-70
2021/08/10 00:05:00;;;;;;;;;;;14.30;99.90;;;;;;5076816;28;19917;-70
2021/08/10 00:07:26;;;;;;;;;;;14.40;99.90;;;;;;5076731;28;19912;-70
2021/08/10 00:09:51;;;;;;;;;;;14.40;99.90;;;;;;5076767;28;19908;-70
2021/08/10 00:12:16;;;;;;;;;;;14.40;99.90;;;;;;5076704;28;19909;-70
2021/08/10 00:14:42;;;;;;;;;;;14.40;99.90;;;;;;5076663;28;19908;-70
2021/08/10 00:17:07;;;;;;;;;;;14.40;99.90;;;;;;5076578;28;20003;-70
2021/08/10 00:19:33;;;;;;;;;;;14.40;99.90;;;;;;5076580;28;19915;-70
2021/08/10 00:21:59;;;;;;;;;;;14.50;99.90;;;;;;5076424;28;19935;-70
2021/08/10 00:24:24;;;;;;;;;;;14.50;99.90;;;;;;5076489;28;19915;-70
2021/08/10 00:26:50;;;;;;;;;;;14.50;99.90;;;;;;5076429;28;19909;-70
2021/08/10 00:29:15;;;;;;;;;;;14.50;99.90;;;;;;5076363;28;19925;-70
2021/08/10 00:31:41;;;;;;;;;;;14.50;99.90;;;;;;5076086;28;19908;-70
2021/08/10 00:34:06;;;;;;;;;;;14.50;99.90;;;;;;5076275;28;19916;-70
2021/08/10 00:36:32;;;;;;;;;;;14.40;99.90;;;;;;5076312;28;19974;-70
2021/08/10 00:38:57;;;;;;;;;;;14.40;99.90;;;;;;5076173;28;19908;-70
2021/08/10 00:41:23;;;;;;;;;;;14.40;99.90;;;;;;5075776;28;19920;-70
2021/08/10 00:43:48;;;;;;;;;;;14.40;99.90;;;;;;5075859;28;19999;-70
2021/08/10 00:46:14;;;;;;;;;;;14.40;99.90;;;;;;5076346;28;19991;-70
2021/08/10 00:48:40;;;;;;;;;;;14.40;99.90;;;;;;5076321;28;20353;-70
2021/08/10 00:51:06;;;;;;;;;;;14.30;99.90;;;;;;5076249;28;19912;-71
2021/08/10 00:53:32;;;;;;;;;;;14.30;99.90;;;;;;5075857;28;19915;-70
2021/08/10 00:55:58;;;;;;;;;;;14.30;99.90;;;;;;5075857;28;19909;-70
2021/08/10 00:58:23;;;;;;;;;;;14.30;99.90;;;;;;5075814;28;19909;-70
2021/08/10 01:00:49;;;;;;;;;;;14.30;99.90;;;;;;5091636;28;19970;-70
2021/08/10 01:03:14;;;;;;;;;;;14.20;99.90;;;;;;5075431;28;19908;-70
2021/08/10 01:05:43;;;;;;;;;;;14.20;99.90;;;;;;5057465;28;19909;-70
2021/08/10 01:08:11;;;;;;;;;;;14.20;99.90;;;;;;5075292;28;19914;-70
2021/08/10 01:10:42;;;;;;;;;;;14.20;99.90;;;;;;5075266;28;20285;-70
2021/08/10 01:13:16;;;;;;;;;;;14.20;99.90;;;;;;5075515;28;19908;-70
2021/08/10 01:15:46;;;;;;;;;;;14.20;99.90;;;;;;5075471;28;20358;-70
2021/08/10 01:18:14;;;;;;;;;;;14.10;99.90;;;;;;5075403;28;19908;-70
2021/08/10 01:20:59;;;;;;;;;;;14.00;99.90;;;;;;5075263;28;20411;-70
2021/08/10 01:23:26;;;;;;;;;;;13.90;99.90;;;;;;5074988;28;20336;-70
2021/08/10 01:26:00;;;;;;;;;;;13.90;99.90;;;;;;5074967;28;19909;-70
2021/08/10 01:28:46;;;;;;;;;;;13.90;99.90;;;;;;5074949;28;20007;-70
2021/08/10 01:31:28;;;;;;;;;;;13.80;99.90;;;;;;5056891;28;19916;-70
2021/08/10 01:33:55;;;;;;;;;;;13.70;99.90;;;;;;5074838;28;19955;-70
2021/08/10 01:36:21;;;;;;;;;;;13.70;99.90;;;;;;5075315;28;19909;-70
2021/08/10 01:38:49;;;;;;;;;;;13.60;99.90;;;;;;5075272;28;19908;-70
2021/08/10 01:41:14;;;;;;;;;;;13.50;99.90;;;;;;5074689;28;19920;-70
2021/08/10 01:43:40;;;;;;;;;;;13.60;99.90;;;;;;5074627;28;19915;-70
2021/08/10 01:46:06;;;;;;;;;;;13.60;99.90;;;;;;5074610;28;19919;-70
2021/08/10 01:48:32;;;;;;;;;;;13.60;99.90;;;;;;5074834;28;20358;-70
2021/08/10 01:50:58;;;;;;;;;;;13.60;99.90;;;;;;5074750;28;19915;-70
2021/08/10 01:53:24;;;;;;;;;;;13.50;99.90;;;;;;5074754;28;19912;-70
2021/08/10 01:55:51;;;;;;;;;;;13.50;99.90;;;;;;5074484;28;19909;-70
2021/08/10 01:58:16;;;;;;;;;;;13.50;99.90;;;;;;5074339;28;19912;-70
2021/08/10 02:00:45;;;;;;;;;;;13.50;99.90;;;;;;5074277;28;20054;-70
2021/08/10 02:03:12;;;;;;;;;;;13.50;99.90;;;;;;5074309;28;19908;-70
2021/08/10 02:05:38;;;;;;;;;;;13.50;99.90;;;;;;5074274;28;20288;-71
2021/08/10 02:08:04;;;;;;;;;;;13.50;99.90;;;;;;5074540;28;19908;-70
2021/08/10 02:10:29;;;;;;;;;;;13.70;99.90;;;;;;5074175;28;20415;-70
2021/08/10 02:12:56;;;;;;;;;;;13.70;99.90;;;;;;5073813;28;19948;-70
2021/08/10 02:15:22;;;;;;;;;;;13.60;99.90;;;;;;5074208;28;19908;-70
2021/08/10 02:17:49;;;;;;;;;;;13.50;99.90;;;;;;5074095;28;20064;-70
2021/08/10 02:20:14;;;;;;;;;;;13.50;99.90;;;;;;5074064;28;19909;-70
2021/08/10 02:22:41;;;;;;;;;;;13.50;99.90;;;;;;5073963;28;19912;-70
2021/08/10 02:25:08;;;;;;;;;;;13.40;99.90;;;;;;5074049;28;19913;-70
2021/08/10 02:27:35;;;;;;;;;;;13.30;99.90;;;;;;5074009;28;19995;-70
2021/08/10 02:30:04;;;;;;;;;;;13.40;99.90;;;;;;5074277;28;20239;-70
2021/08/10 02:32:30;;;;;;;;;;;13.40;99.90;;;;;;5073928;28;19950;-70
2021/08/10 02:34:57;;;;;;;;;;;13.60;99.90;;;;;;5073917;28;19940;-70
2021/08/10 02:37:23;;;;;;;;;;;13.80;99.90;;;;;;5073884;28;19915;-70
2021/08/10 02:39:49;;;;;;;;;;;13.90;99.90;;;;;;5073837;28;19909;-70
2021/08/10 02:42:17;;;;;;;;;;;13.90;99.90;;;;;;5073630;28;20055;-70
2021/08/10 02:44:43;;;;;;;;;;;14.00;99.90;;;;;;5073806;28;19909;-70
2021/08/10 02:47:09;;;;;;;;;;;14.10;99.90;;;;;;5072552;28;19908;-70
2021/08/10 02:49:34;;;;;;;;;;;14.10;99.90;;;;;;5073785;28;20250;-70
2021/08/10 02:52:00;;;;;;;;;;;14.20;99.90;;;;;;5074017;28;20382;-70
2021/08/10 02:54:26;;;;;;;;;;;14.20;99.90;;;;;;5074279;28;19919;-70
2021/08/10 02:56:54;;;;;;;;;;;14.10;99.90;;;;;;5074245;28;19913;-70
2021/08/10 02:59:22;;;;;;;;;;;14.20;99.90;;;;;;5056629;28;20007;-70
2021/08/10 03:01:49;;;;;;;;;;;14.20;99.90;;;;;;5073577;28;19913;-70
2021/08/10 03:04:16;;;;;;;;;;;14.20;99.90;;;;;;5089610;28;19915;-70
2021/08/10 03:06:43;;;;;;;;;;;14.20;99.90;;;;;;5073928;28;20329;-70
2021/08/10 03:09:09;;;;;;;;;;;14.30;99.90;;;;;;5073828;28;19916;-70
2021/08/10 03:11:38;;;;;;;;;;;14.30;99.90;;;;;;5073831;28;19991;-70
2021/08/10 03:14:05;;;;;;;;;;;14.30;99.90;;;;;;5073535;28;19908;-70
2021/08/10 03:16:31;;;;;;;;;;;14.20;99.90;;;;;;5073472;28;20358;-70
2021/08/10 03:18:59;;;;;;;;;;;14.20;99.90;;;;;;5073423;28;20381;-70
2021/08/10 03:21:25;;;;;;;;;;;14.10;99.90;;;;;;5073371;28;20020;-70
2021/08/10 03:23:52;;;;;;;;;;;14.00;99.90;;;;;;5073741;28;20286;-70
2021/08/10 03:26:20;;;;;;;;;;;14.00;99.90;;;;;;5059317;28;20370;-71
2021/08/10 03:28:45;;;;;;;;;;;14.00;99.90;;;;;;5077282;28;19912;-71
2021/08/10 03:31:11;;;;;;;;;;;14.00;99.90;;;;;;5059819;28;19908;-70
2021/08/10 03:33:37;;;;;;;;;;;14.00;99.90;;;;;;5077418;28;19938;-70
2021/08/10 03:36:04;;;;;;;;;;;14.00;99.90;;;;;;5077390;28;19955;-70
2021/08/10 03:38:30;;;;;;;;;;;14.00;99.90;;;;;;5059101;28;19908;-70
2021/08/10 03:40:56;;;;;;;;;;;14.20;99.90;;;;;;5076719;28;19968;-71
2021/08/10 03:43:22;;;;;;;;;;;14.20;99.90;;;;;;5077000;28;19962;-70
2021/08/10 03:45:50;;;;;;;;;;;14.30;99.90;;;;;;5076907;28;19960;-70
2021/08/10 03:48:16;;;;;;;;;;;14.40;99.90;;;;;;5076878;28;19912;-71
2021/08/10 03:50:42;;;;;;;;;;;14.50;99.90;;;;;;5076865;28;19919;-70
2021/08/10 03:53:08;;;;;;;;;;;14.50;99.90;;;;;;5076812;28;20421;-70
2021/08/10 03:55:34;;;;;;;;;;;14.50;99.90;;;;;;5058846;28;19955;-71
2021/08/10 03:58:03;;;;;;;;;;;14.50;99.90;;;;;;5076742;28;20288;-71
2021/08/10 04:00:28;;;;;;;;;;;14.60;99.90;;;;;;5076669;28;20049;-71
2021/08/10 04:02:54;;;;;;;;;;;14.70;99.90;;;;;;5076593;28;19982;-71
2021/08/10 04:05:20;;;;;;;;;;;14.70;99.90;;;;;;5092590;28;20313;-70
2021/08/10 04:07:45;;;;;;;;;;;14.70;99.90;;;;;;5076861;28;19909;-71
2021/08/10 04:10:11;;;;;;;;;;;14.70;99.90;;;;;;5076782;28;19915;-71
2021/08/10 04:12:36;;;;;;;;;;;14.80;99.90;;;;;;5076714;28;20376;-70
2021/08/10 04:15:03;;;;;;;;;;;14.80;99.90;;;;;;5076728;28;19958;-70
2021/08/10 04:17:30;;;;;;;;;;;14.80;99.90;;;;;;5076680;28;19908;-70
2021/08/10 04:19:57;;;;;;;;;;;14.80;99.90;;;;;;5076371;28;19908;-71
2021/08/10 04:22:22;;;;;;;;;;;14.80;99.90;;;;;;5076205;28;19928;-70
2021/08/10 04:24:48;;;;;;;;;;;14.80;99.90;;;;;;5076529;28;19915;-71
2021/08/10 04:27:14;;;;;;;;;;;14.90;99.90;;;;;;5076499;28;20008;-70
2021/08/10 04:29:39;;;;;;;;;;;14.90;99.90;;;;;;5092135;28;19909;-70
2021/08/10 04:32:06;;;;;;;;;;;14.90;99.90;;;;;;5076688;28;20381;-70
2021/08/10 04:34:31;;;;;;;;;;;14.90;99.90;;;;;;5076308;28;19915;-70
2021/08/10 04:36:57;;;;;;;;;;;15.00;99.90;;;;;;5076582;28;19909;-70
2021/08/10 04:39:26;;;;;;;;;;;15.10;99.90;;;;;;5076556;28;20239;-70
2021/08/10 04:41:51;;;;;;;;;;;15.10;99.90;;;;;;5075701;28;20015;-70
2021/08/10 04:44:17;;;;;;;;;;;15.10;99.90;;;;;;5075860;28;19955;-70
2021/08/10 04:46:42;;;;;;;;;;;15.10;99.90;;;;;;5076109;28;19915;-70
2021/08/10 04:49:07;;;;;;;;;;;15.10;99.90;;;;;;5091690;28;19912;-70
2021/08/10 04:51:33;;;;;;;;;;;15.10;99.90;;;;;;5075723;28;19916;-70
2021/08/10 04:53:58;;;;;;;;;;;15.10;99.90;;;;;;5075709;28;20053;-70
2021/08/10 04:56:24;;;;;;;;;;;15.10;99.90;;;;;;5075675;28;19912;-70
2021/08/10 04:58:49;;;;;;;;;;;15.10;99.90;;;;;;5075551;28;19995;-70
2021/08/10 05:01:15;;;;;;;;;;;15.10;99.90;;;;;;5075772;28;19983;-70
2021/08/10 05:03:41;;;;;;;;;;;15.10;99.90;;;;;;5075746;28;19915;-70
2021/08/10 05:06:06;;;;;;;;;;;15.10;99.90;;;;;;5075691;28;20385;-70
2021/08/10 05:08:40;;;;;;;;;;;15.10;99.90;;;;;;5075641;28;19909;-70
2021/08/10 05:11:08;;;;;;;;;;;15.10;99.90;;;;;;5075604;28;20274;-70
2021/08/10 05:13:33;;;;;;;;;;;15.00;99.90;;;;;;5075857;28;19955;-71
2021/08/10 05:15:59;;;;;;;;;;;15.00;99.90;;;;;;5057298;28;20012;-70
2021/08/10 05:18:24;;;;;;;;;;;15.00;99.90;;;;;;5057212;28;19908;-71
2021/08/10 05:20:50;;;;;;;;;;;14.90;99.90;;;;;;5075049;28;19912;-70
2021/08/10 05:23:15;;;;;;;;;;;14.90;99.90;;;;;;5075080;28;19908;-70
2021/08/10 05:25:41;;;;;;;;;;;14.90;99.90;;;;;;5075270;28;20413;-70
2021/08/10 05:28:06;;;;;;;;;;;14.90;99.90;;;;;;5057044;28;20388;-70
2021/08/10 05:30:32;;;;;;;;;;;14.90;99.90;;;;;;5074935;28;19948;-70
2021/08/10 05:32:57;;;;;;;;;;;14.90;99.90;;;;;;5074840;28;20320;-70
2021/08/10 05:35:22;;;;;;;;;;;14.80;99.90;;;;;;5074823;28;19908;-70
2021/08/10 05:37:48;;;;;;;;;;;14.90;99.90;;;;;;5074766;28;19909;-71
2021/08/10 05:40:13;;;;;;;;;;;14.80;99.90;;;;;;5074451;28;20007;-70
2021/08/10 05:42:39;;;;;;;;;;;14.90;99.90;;;;;;5074607;28;19935;-71
2021/08/10 05:45:04;;;;;;;;;;;14.90;99.90;;;;;;5075259;28;19916;-71
2021/08/10 05:47:30;;;;;;;;;;;15.00;99.90;;;;;;5074488;28;19909;-71
2021/08/10 05:49:55;;;;;;;;;;;15.00;99.90;;;;;;5075143;28;20011;-70
2021/08/10 05:52:21;;;;;;;;;;;15.30;99.90;;;;;;5074831;28;20003;-70
2021/08/10 05:54:46;;;;;;;;;;;15.70;99.90;;;;;;5074689;28;19993;-71
2021/08/10 05:57:11;;;;;;;;;;;16.90;99.90;;;;;;5074689;28;19919;-71
2021/08/10 05:59:37;;;;;;;;;;;18.40;99.90;;;;;;5074677;28;19915;-71
2021/08/10 06:02:04;;;;;;;;;;;19.30;99.90;;;;;;5074933;28;19919;-71
2021/08/10 06:04:29;;;;;;;;;;;20.10;99.90;;;;;;5074601;28;20357;-71
2021/08/10 06:06:56;;;;;;;;;;;20.40;99.90;;;;;;5074512;28;19915;-71
2021/08/10 06:09:22;;;;;;;;;;;20.70;99.90;;;;;;5074523;28;19991;-71
2021/08/10 06:11:47;;;;;;;;;;;20.90;99.90;;;;;;5074368;28;19951;-71
2021/08/10 06:14:13;;;;;;;;;;;20.60;99.90;;;;;;5074316;28;19915;-71
2021/08/10 06:16:38;;;;;;;;;;;19.40;99.90;;;;;;5090526;28;19909;-71
2021/08/10 06:19:07;;;;;;;;;;;18.70;99.90;;;;;;5076156;28;20340;-71
2021/08/10 06:21:32;;;;;;;;;;;18.60;99.90;;;;;;5075677;28;19913;-71
2021/08/10 06:24:00;;;;;;;;;;;19.30;99.90;;;;;;5073894;28;19965;-71
2021/08/10 06:26:25;;;;;;;;;;;19.80;99.90;;;;;;5089643;28;20028;-71
2021/08/10 06:28:50;;;;;;;;;;;20.20;99.90;;;;;;5074171;28;19962;-71
2021/08/10 06:31:16;;;;;;;;;;;21.00;99.90;;;;;;5074071;28;19969;-71
2021/08/10 06:33:41;;;;;;;;;;;21.20;99.90;;;;;;5073909;28;19916;-71
2021/08/10 06:36:07;;;;;;;;;;;20.40;99.90;;;;;;5073794;28;19915;-71
2021/08/10 06:38:32;;;;;;;;;;;19.70;99.90;;;;;;5073730;28;19915;-71
2021/08/10 06:40:58;;;;;;;;;;;19.20;99.90;;;;;;5073622;28;19924;-71
2021/08/10 06:43:23;;;;;;;;;;;18.80;99.90;;;;;;5074340;28;19909;-71
2021/08/10 06:45:49;;;;;;;;;;;19.30;99.90;;;;;;5074172;28;19909;-71
2021/08/10 06:48:14;;;;;;;;;;;19.60;99.90;;;;;;5089671;28;19909;-71
2021/08/10 06:50:40;;;;;;;;;;;20.10;99.90;;;;;;5074016;28;20255;-71
2021/08/10 06:53:06;;;;;;;;;;;19.70;99.90;;;;;;5073963;28;19909;-71
2021/08/10 06:55:31;;;;;;;;;;;19.50;99.90;;;;;;5073953;28;20003;-71
2021/08/10 06:57:57;;;;;;;;;;;19.50;99.90;;;;;;5076067;28;19909;-71
2021/08/10 07:00:22;;;;;;;;;;;19.00;99.90;;;;;;5077848;28;19915;-71
2021/08/10 07:02:48;;;;;;;;;;;19.20;99.90;;;;;;5093682;28;20361;-71
2021/08/10 07:05:14;;;;;;;;;;;19.50;99.90;;;;;;5077896;28;20050;-71
2021/08/10 07:07:40;;;;;;;;;;;20.60;99.90;;;;;;5078184;28;19908;-71
2021/08/10 07:10:06;;;;;;;;;;;21.30;99.90;;;;;;5077830;28;19920;-71
2021/08/10 07:12:31;;;;;;;;;;;22.00;99.90;;;;;;5077750;28;19912;-71
2021/08/10 07:14:57;;;;;;;;;;;21.70;99.90;;;;;;5077744;28;20289;-71
2021/08/10 07:17:22;;;;;;;;;;;22.30;99.90;;;;;;5077695;28;20273;-71
2021/08/10 07:19:47;;;;;;;;;;;22.20;99.90;;;;;;5077676;28;19915;-71
2021/08/10 07:22:13;;;;;;;;;;;21.70;99.90;;;;;;5093304;28;19912;-71
2021/08/10 07:24:38;;;;;;;;;;;21.90;99.90;;;;;;5077576;28;20318;-71
2021/08/10 07:27:04;;;;;;;;;;;21.90;99.90;;;;;;5077248;28;19931;-71
2021/08/10 07:29:30;;;;;;;;;;;21.90;99.90;;;;;;5077533;28;20007;-71
2021/08/10 07:31:55;;;;;;;;;;;21.90;99.90;;;;;;5077257;28;19995;-71
2021/08/10 07:34:21;;;;;;;;;;;22.20;99.90;;;;;;5077107;28;20324;-71
2021/08/10 07:36:47;;;;;;;;;;;22.20;99.90;;;;;;5077061;28;19913;-71
2021/08/10 07:39:12;;;;;;;;;;;22.20;99.90;;;;;;5077034;28;19916;-71
2021/08/10 07:41:38;;;;;;;;;;;22.20;99.90;;;;;;5076696;28;19921;-71
2021/08/10 07:44:03;;;;;;;;;;;21.80;99.90;;;;;;5076960;28;19965;-71
2021/08/10 07:46:29;;;;;;;;;;;21.80;99.90;;;;;;5076845;28;19909;-71
2021/08/10 07:48:54;;;;;;;;;;;21.60;99.90;;;;;;5076836;28;20006;-71
2021/08/10 07:51:20;;;;;;;;;;;21.40;99.90;;;;;;5076744;28;19915;-71
2021/08/10 07:53:45;;;;;;;;;;;21.00;99.90;;;;;;5076712;28;19912;-70
2021/08/10 07:56:12;;;;;;;;;;;20.20;99.90;;;;;;5076891;28;19909;-70
2021/08/10 07:58:37;;;;;;;;;;;20.10;99.90;;;;;;5076886;28;19947;-70
2021/08/10 08:01:04;;;;;;;;;;;20.10;99.90;;;;;;5076716;28;19908;-70
2021/08/10 08:03:29;;;;;;;;;;;20.30;99.90;;;;;;5076827;28;19908;-70
2021/08/10 08:05:55;;;;;;;;;;;21.40;99.90;;;;;;5076531;28;20392;-71
2021/08/10 08:08:22;;;;;;;;;;;22.10;99.90;;;;;;5076486;28;19908;-71
2021/08/10 08:10:47;;;;;;;;;;;22.70;99.90;;;;;;5075734;28;20386;-70
2021/08/10 08:13:12;;;;;;;;;;;22.40;99.90;;;;;;5076470;28;19908;-71
2021/08/10 08:15:38;;;;;;;;;;;22.00;99.90;;;;;;5076366;28;19908;-70
2021/08/10 08:18:03;;;;;;;;;;;21.90;99.90;;;;;;5076592;28;20377;-71
2021/08/10 08:20:29;;;;;;;;;;;22.20;99.90;;;;;;5092140;28;19920;-71
2021/08/10 08:22:54;;;;;;;;;;;22.80;99.90;;;;;;5076388;28;19948;-71
2021/08/10 08:25:20;;;;;;;;;;;23.90;99.90;;;;;;5076192;28;19912;-71
2021/08/10 08:27:45;;;;;;;;;;;22.90;99.90;;;;;;5058153;28;20089;-71
2021/08/10 08:30:11;;;;;;;;;;;23.00;99.90;;;;;;5076027;28;19962;-70
2021/08/10 08:32:37;;;;;;;;;;;22.10;99.90;;;;;;5076029;28;19912;-70
2021/08/10 08:35:02;;;;;;;;;;;21.50;99.90;;;;;;5057812;28;19959;-70
2021/08/10 08:37:28;;;;;;;;;;;21.30;99.90;;;;;;5075926;28;19916;-70
2021/08/10 08:39:53;;;;;;;;;;;20.80;99.90;;;;;;5075983;28;19913;-70
2021/08/10 08:42:19;;;;;;;;;;;20.90;99.90;;;;;;5075732;28;19927;-70
2021/08/10 08:44:44;;;;;;;;;;;20.90;99.90;;;;;;5057857;28;19964;-70
2021/08/10 08:47:10;;;;;;;;;;;21.60;99.90;;;;;;5076281;28;19915;-70
2021/08/10 08:49:36;;;;;;;;;;;21.30;99.90;;;;;;5076006;28;19908;-70
2021/08/10 08:52:03;;;;;;;;;;;21.10;99.90;;;;;;5076248;28;19916;-70
2021/08/10 08:54:29;;;;;;;;;;;20.80;99.90;;;;;;5076048;28;19908;-70
2021/08/10 08:56:55;;;;;;;;;;;20.60;99.90;;;;;;5058105;28;20372;-70
2021/08/10 08:59:21;;;;;;;;;;;21.10;99.90;;;;;;5076077;28;20472;-70
2021/08/10 09:01:48;;;;;;;;;;;21.10;99.90;;;;;;5091416;28;19959;-70
2021/08/10 09:04:14;;;;;;;;;;;21.20;99.90;;;;;;5090895;28;20273;-70
2021/08/10 09:06:39;;;;;;;;;;;21.10;99.90;;;;;;5057901;28;20007;-70
2021/08/10 09:09:18;;;;;;;;;;;21.20;99.90;;;;;;5075491;28;19912;-70
2021/08/10 09:11:47;;;;;;;;;;;21.50;99.90;;;;;;5075663;28;19940;-70
2021/08/10 09:14:12;;;;;;;;;;;22.60;99.90;;;;;;5075146;28;19920;-70
2021/08/10 09:16:37;;;;;;;;;;;23.60;99.90;;;;;;5075647;28;19909;-70
2021/08/10 09:19:03;;;;;;;;;;;24.30;99.90;;;;;;5075047;28;19948;-70
2021/08/10 09:21:29;;;;;;;;;;;23.80;99.90;;;;;;5074374;28;19920;-70
2021/08/10 09:23:56;;;;;;;;;;;23.60;99.90;;;;;;5075481;28;20299;-70
2021/08/10 09:26:23;;;;;;;;;;;22.90;99.90;;;;;;5074799;28;19916;-70
2021/08/10 09:28:49;;;;;;;;;;;22.60;99.90;;;;;;5074840;28;19957;-70
2021/08/10 09:31:34;;;;;;;;;;;22.90;99.90;;;;;;5057548;28;19913;-70
2021/08/10 09:34:01;;;;;;;;;;;22.50;99.90;;;;;;5075061;28;20034;-70
2021/08/10 09:36:27;;;;;;;;;;;23.50;99.90;;;;;;5075026;28;20297;-70
2021/08/10 09:38:53;;;;;;;;;;;24.40;99.90;;;;;;5074732;28;19916;-70
2021/08/10 09:41:19;;;;;;;;;;;24.00;99.90;;;;;;5074429;28;20331;-70
2021/08/10 09:43:44;;;;;;;;;;;23.30;99.90;;;;;;5074612;28;19909;-70
2021/08/10 09:46:14;;;;;;;;;;;23.80;99.90;;;;;;5057287;28;19914;-70
2021/08/10 09:48:41;;;;;;;;;;;24.40;99.90;;;;;;5075062;28;20411;-70
2021/08/10 09:51:09;;;;;;;;;;;24.40;99.90;;;;;;5074751;28;19920;-70
2021/08/10 09:53:35;;;;;;;;;;;23.60;99.90;;;;;;5074789;28;19962;-70
2021/08/10 09:56:00;;;;;;;;;;;24.20;99.90;;;;;;5074614;28;19908;-70
2021/08/10 09:58:26;;;;;;;;;;;23.30;99.90;;;;;;5074473;28;19908;-70
2021/08/10 10:00:51;;;;;;;;;;;24.10;99.90;;;;;;5074264;28;20007;-70
2021/08/10 10:03:18;;;;;;;;;;;24.60;99.90;;;;;;5074264;28;20398;-70
2021/08/10 10:05:44;;;;;;;;;;;25.20;99.90;;;;;;5074212;28;19958;-70
2021/08/10 10:08:12;;;;;;;;;;;25.60;99.90;;;;;;5074207;28;19994;-70
2021/08/10 10:10:37;;;;;;;;;;;25.20;99.90;;;;;;5074191;28;19909;-70
2021/08/10 10:13:03;;;;;;;;;;;24.80;99.90;;;;;;5074182;28;19931;-70
2021/08/10 10:15:28;;;;;;;;;;;24.90;99.90;;;;;;5090105;28;20001;-70
2021/08/10 10:17:54;;;;;;;;;;;25.00;99.90;;;;;;5074363;28;19909;-70
2021/08/10 10:20:19;;;;;;;;;;;25.00;99.90;;;;;;5090036;28;19915;-70
2021/08/10 10:22:46;;;;;;;;;;;24.70;99.90;;;;;;5074377;28;20048;-70
2021/08/10 10:25:12;;;;;;;;;;;25.30;99.90;;;;;;5074355;28;19940;-70
2021/08/10 10:27:38;;;;;;;;;;;25.00;99.90;;;;;;5057807;28;19912;-70
2021/08/10 10:30:04;;;;;;;;;;;24.80;99.90;;;;;;5074582;28;19915;-71
2021/08/10 10:32:30;;;;;;;;;;;24.50;99.90;;;;;;5074783;28;19909;-70
2021/08/10 10:34:55;;;;;;;;;;;23.80;99.90;;;;;;5089863;28;19909;-70
2021/08/10 10:37:22;;;;;;;;;;;23.20;99.90;;;;;;5074274;28;19958;-70
2021/08/10 10:39:49;;;;;;;;;;;22.90;99.90;;;;;;5074192;28;19909;-70
2021/08/10 10:42:15;;;;;;;;;;;22.80;99.90;;;;;;5055549;28;19924;-70
2021/08/10 10:44:45;;;;;;;;;;;22.80;99.90;;;;;;5073772;28;21394;-70
2021/08/10 10:50:05;;;;;;;;;;;23.30;99.90;;;;;;5108261;27;1867969;-68
2021/08/10 10:52:32;;;;;;;;;;;23.40;99.90;;;;;;5174117;27;19911;-70
2021/08/10 10:54:58;;;;;;;;;;;23.00;99.90;;;;;;5174022;27;20006;-69
2021/08/10 11:03:07;;;;;;;;;;;23.00;99.90;;;;;;5092051;27;19913;-70
2021/08/10 11:05:33;;;;;;;;;;;23.70;99.90;;;;;;5091458;28;19912;-70
2021/08/10 11:07:59;;;;;;;;;;;23.40;99.90;;;;;;5090262;28;19923;-70
2021/08/10 11:10:45;;;;;;;;;;;23.00;99.90;;;;;;5090351;28;20309;-70
2021/08/10 11:13:30;;;;;;;;;;;22.50;99.90;;;;;;5088392;28;19923;-69
2021/08/10 11:15:56;;;;;;;;;;;22.50;99.90;;;;;;5091732;28;19909;-70
2021/08/10 11:18:22;;;;;;;;;;;22.30;99.90;;;;;;5090137;28;20458;-70
2021/08/10 11:21:06;;;;;;;;;;;22.40;99.90;;;;;;5090180;28;19913;-70
2021/08/10 11:23:32;;;;;;;;;;;23.00;99.90;;;;;;5089994;28;19912;-69
2021/08/10 11:28:37;;;;;;;;;;;23.70;99.90;;;;;;5142643;27;19911;-71
2021/08/10 11:31:04;;;;;;;;;;;23.20;99.90;;;;;;5131263;28;19912;-71
2021/08/10 11:33:33;;;;;;;;;;;23.30;99.90;;;;;;5131416;28;19918;-71
2021/08/10 11:36:16;;;;;;;;;;;23.10;99.90;;;;;;5131590;28;19908;-71
2021/08/10 11:41:29;;;;;;;;;;;23.40;99.90;;;;;;5092175;28;19912;-71
2021/08/10 11:43:56;;;;;;;;;;;23.60;99.90;;;;;;5091981;28;20372;-71
2021/08/10 11:46:26;;;;;;;;;;;23.70;99.90;;;;;;5092143;28;19908;-71
2021/08/10 11:48:53;;;;;;;;;;;23.40;99.90;;;;;;5091306;28;19945;-71
2021/08/10 11:51:22;;;;;;;;;;;23.00;99.90;;;;;;5091098;28;20415;-71
2021/08/10 11:53:49;;;;;;;;;;;22.80;99.90;;;;;;5091173;28;19909;-71
2021/08/10 11:56:34;;;;;;;;;;;23.10;99.90;;;;;;5091151;28;19912;-71
2021/08/10 11:59:01;;;;;;;;;;;22.90;99.90;;;;;;5090927;28;19912;-71
2021/08/10 12:01:28;;;;;;;;;;;22.90;99.90;;;;;;5089817;28;19908;-71
2021/08/10 12:03:53;;;;;;;;;;;23.00;99.90;;;;;;5089868;28;19919;-71
2021/08/10 12:06:25;;;;;;;;;;;23.30;99.90;;;;;;5090242;28;19908;-71
2021/08/10 12:08:51;;;;;;;;;;;23.80;99.90;;;;;;5090626;28;19919;-71
2021/08/10 12:11:21;;;;;;;;;;;23.20;99.90;;;;;;5090519;28;20128;-71
2021/08/10 12:13:46;;;;;;;;;;;23.00;99.90;;;;;;5090267;28;19913;-71
2021/08/10 12:16:12;;;;;;;;;;;23.30;99.90;;;;;;5090472;28;19909;-71
2021/08/10 12:18:46;;;;;;;;;;;22.90;99.90;;;;;;5090008;28;19919;-71
2021/08/10 12:21:12;;;;;;;;;;;22.80;99.90;;;;;;5090020;28;19912;-71
2021/08/10 12:23:41;;;;;;;;;;;23.00;99.90;;;;;;5089836;28;19961;-71
2021/08/10 12:26:08;;;;;;;;;;;22.60;99.90;;;;;;5090147;28;20407;-71
2021/08/10 12:28:48;;;;;;;;;;;22.80;99.90;;;;;;5123530;28;19908;-71
2021/08/10 12:31:14;;;;;;;;;;;23.00;99.90;;;;;;5077984;28;19958;-71
2021/08/10 12:33:39;;;;;;;;;;;23.40;99.90;;;;;;5090426;28;19916;-71
2021/08/10 12:36:06;;;;;;;;;;;23.30;99.90;;;;;;5090367;28;19999;-71
2021/08/10 12:38:33;;;;;;;;;;;23.00;99.90;;;;;;5090335;28;19908;-71
2021/08/10 12:40:58;;;;;;;;;;;22.70;99.90;;;;;;5088770;28;19920;-71
2021/08/10 12:43:24;;;;;;;;;;;22.90;99.90;;;;;;5090203;28;19961;-71
2021/08/10 12:45:50;;;;;;;;;;;22.80;99.90;;;;;;5090195;28;19917;-71
2021/08/10 12:48:32;;;;;;;;;;;23.00;99.90;;;;;;5090014;28;19913;-71
2021/08/10 12:50:59;;;;;;;;;;;23.30;99.90;;;;;;5086738;28;20324;-71
2021/08/10 12:53:26;;;;;;;;;;;23.90;99.90;;;;;;5076778;28;20357;-71
2021/08/10 12:55:51;;;;;;;;;;;23.40;99.90;;;;;;5076758;28;19908;-71
2021/08/10 12:58:17;;;;;;;;;;;23.30;99.90;;;;;;5076751;28;19920;-71
2021/08/10 13:00:54;;;;;;;;;;;23.50;99.90;;;;;;5076525;28;20018;-72
2021/08/10 13:03:21;;;;;;;;;;;23.60;99.90;;;;;;5075702;28;20285;-71
2021/08/10 13:05:46;;;;;;;;;;;23.50;99.90;;;;;;5076845;28;19908;-71
2021/08/10 13:08:11;;;;;;;;;;;23.60;99.90;;;;;;5076840;28;19954;-71
2021/08/10 13:10:38;;;;;;;;;;;23.50;99.90;;;;;;5076848;28;19957;-71
2021/08/10 13:13:05;;;;;;;;;;;23.50;99.90;;;;;;5076853;28;19916;-71
2021/08/10 13:15:46;;;;;;;;;;;23.50;99.90;;;;;;5076470;28;19909;-71
2021/08/10 13:18:24;;;;;;;;;;;23.70;99.90;;;;;;5076438;28;19908;-71
2021/08/10 13:20:52;;;;;;;;;;;23.50;99.90;;;;;;5076229;28;19913;-71
2021/08/10 13:23:18;;;;;;;;;;;23.70;99.90;;;;;;5075624;28;19999;-71
2021/08/10 13:26:03;;;;;;;;;;;23.80;99.90;;;;;;5075264;28;19955;-71
2021/08/10 13:28:33;;;;;;;;;;;23.60;99.90;;;;;;5075932;28;19909;-71
2021/08/10 13:31:18;;;;;;;;;;;23.30;99.90;;;;;;5075954;28;19915;-71
2021/08/10 13:34:02;;;;;;;;;;;23.20;99.90;;;;;;5075767;28;19908;-71
2021/08/10 13:36:29;;;;;;;;;;;23.40;99.90;;;;;;5075810;28;19916;-71
2021/08/10 13:38:54;;;;;;;;;;;23.60;99.90;;;;;;5074457;28;20304;-71
2021/08/10 13:41:22;;;;;;;;;;;23.50;99.90;;;;;;5095338;28;19927;-71
2021/08/10 13:43:48;;;;;;;;;;;23.20;99.90;;;;;;5078401;28;20258;-71
2021/08/10 13:46:14;;;;;;;;;;;23.40;99.90;;;;;;5095777;28;19966;-71
2021/08/10 13:48:40;;;;;;;;;;;23.60;99.90;;;;;;5077640;28;19947;-71
2021/08/10 13:51:05;;;;;;;;;;;23.50;99.90;;;;;;5095774;28;19955;-71
2021/08/10 13:53:32;;;;;;;;;;;23.20;99.90;;;;;;5061421;28;19912;-71
2021/08/10 13:55:58;;;;;;;;;;;22.90;99.90;;;;;;5095896;28;19916;-71
2021/08/10 13:58:24;;;;;;;;;;;22.60;99.90;;;;;;5095611;28;19908;-71
2021/08/10 14:00:49;;;;;;;;;;;22.50;99.90;;;;;;5094920;28;20345;-71
2021/08/10 14:03:16;;;;;;;;;;;22.40;99.90;;;;;;5094418;28;19908;-71
2021/08/10 14:05:42;;;;;;;;;;;22.50;99.90;;;;;;5077657;28;19931;-71
2021/08/10 14:08:07;;;;;;;;;;;22.40;99.90;;;;;;5095329;28;20331;-71
2021/08/10 14:10:34;;;;;;;;;;;22.20;99.90;;;;;;5095325;28;19931;-71
2021/08/10 14:12:59;;;;;;;;;;;21.60;99.90;;;;;;5095591;28;20269;-71
2021/08/10 14:15:25;;;;;;;;;;;21.20;99.90;;;;;;5095328;28;19908;-71
2021/08/10 14:17:50;;;;;;;;;;;21.00;99.90;;;;;;5095503;28;20275;-71
2021/08/10 14:20:16;;;;;;;;;;;21.00;99.90;;;;;;5095377;28;19916;-71
2021/08/10 14:22:41;;;;;;;;;;;20.80;99.90;;;;;;5095373;28;19908;-71
2021/08/10 14:25:07;;;;;;;;;;;20.70;99.90;;;;;;5095347;28;19912;-71
2021/08/10 14:27:32;;;;;;;;;;;20.80;99.90;;;;;;5076839;28;19908;-71